Donalda, Canada
Current Conditions -  °F | °C
As of 11:00 AM on Wednesday 26 Nov 2014 (Local Time) from CYQF Reporting Station
Haze Haze  
Wind Chill: 15°   Ceiling: 12000
Heat Index: 23°   Visibility: 6mi
Dew Point: 21°   Wind: 7mph
Humidity: 93%   Direction: 160°SSE
Pressure: 30.12"   Gusts: NA
Location:  52.58°N, 112.57°W
Report Text: CYQF 261800Z 16006KT 6SM BR FEW040 OVC120 M05/M06 A3012 RMK SC1AC7 SLP253
Loading
Personal Weather Stations






























Interactive Weather Map New forecast layout! Learn more

10-Day Weather Forecast

Advertisements
Track Severe Weather on mobile